createdAt,value
2022-07-30T00:03:38.000Z,557.00
2022-07-30T00:08:37.184Z,573.10
2022-07-30T00:13:39.533Z,569.50
2022-07-30T00:18:37.739Z,598.80
2022-07-30T00:23:35.951Z,552.40
2022-07-30T00:28:34.135Z,563.40
2022-07-30T00:33:34.325Z,513.50
2022-07-30T00:38:35.637Z,498.60
2022-07-30T00:43:31.823Z,546.50
2022-07-30T00:48:33.029Z,572.40
2022-07-30T00:53:30.215Z,573.00
2022-07-30T00:58:31.443Z,496.70
2022-07-30T01:03:30.714Z,587.30
2022-07-30T01:08:27.983Z,541.60
2022-07-30T01:13:28.208Z,532.70
2022-07-30T01:18:26.394Z,497.30
2022-07-30T01:23:26.658Z,563.10
2022-07-30T01:28:27.920Z,609.70
2022-07-30T01:33:24.101Z,605.10
2022-07-30T01:38:23.306Z,588.50
2022-07-30T01:43:24.495Z,572.50
2022-07-30T01:48:21.687Z,491.80
2022-07-30T01:53:21.091Z,571.40
2022-07-30T01:58:20.198Z,557.40
2022-07-30T02:03:19.514Z,566.00
2022-07-30T02:08:18.766Z,588.60
2022-07-30T02:13:19.089Z,555.40
2022-07-30T02:18:17.400Z,568.30
2022-07-30T02:23:18.720Z,610.60
2022-07-30T02:28:16.072Z,594.80
2022-07-30T02:33:17.199Z,520.30
2022-07-30T02:38:14.507Z,606.70
2022-07-30T02:43:13.823Z,602.60
2022-07-30T02:48:32.969Z,607.40
2022-07-30T02:53:12.322Z,615.10
2022-07-30T02:58:12.659Z,597.80
2022-07-30T03:03:12.811Z,569.00
2022-07-30T03:08:12.124Z,586.40
2022-07-30T03:13:09.434Z,616.40
2022-07-30T03:18:09.768Z,590.60
2022-07-30T03:23:07.896Z,602.40
2022-07-30T03:28:08.055Z,591.10
2022-07-30T03:33:06.171Z,605.50
2022-07-30T03:38:05.405Z,611.00
2022-07-30T03:43:18.402Z,653.60
2022-07-30T03:48:05.811Z,560.80
2022-07-30T03:53:03.944Z,633.70
2022-07-30T03:58:04.085Z,600.90
2022-07-30T04:03:01.435Z,683.40
2022-07-30T04:08:00.546Z,656.30
2022-07-30T04:12:59.791Z,661.00
2022-07-30T04:17:58.918Z,671.30
2022-07-30T04:22:59.259Z,643.50
2022-07-30T04:28:03.309Z,665.00
2022-07-30T04:32:56.557Z,647.00
2022-07-30T04:37:55.891Z,629.00
2022-07-30T04:42:55.017Z,659.60
2022-07-30T04:47:55.169Z,660.10
2022-07-30T04:52:53.608Z,668.00
2022-07-30T04:57:53.944Z,661.40
2022-07-30T05:02:52.082Z,641.00
2022-07-30T05:07:51.389Z,651.30
2022-07-30T05:12:51.732Z,600.40
2022-07-30T05:17:50.045Z,643.90
2022-07-30T05:22:50.860Z,645.20
2022-07-30T05:27:52.558Z,657.80
2022-07-30T05:32:48.917Z,647.70
2022-07-30T05:37:47.085Z,624.00
2022-07-30T05:42:46.419Z,630.30
2022-07-30T05:47:45.578Z,644.90
2022-07-30T05:52:44.745Z,673.10
2022-07-30T05:57:44.860Z,658.00
2022-07-30T06:02:43.027Z,641.00
2022-07-30T06:07:42.342Z,678.40
2022-07-30T06:12:41.655Z,624.10
2022-07-30T06:17:41.401Z,650.80
2022-07-30T06:22:41.375Z,622.30
2022-07-30T06:27:39.961Z,648.50
2022-07-30T06:32:40.706Z,646.60
2022-07-30T06:37:59.561Z,628.30
2022-07-30T06:42:37.201Z,649.70
2022-07-30T06:47:36.542Z,613.00
2022-07-30T06:52:36.894Z,629.00
2022-07-30T06:57:41.930Z,637.40
2022-07-30T07:02:34.209Z,639.90
2022-07-30T07:07:42.002Z,622.90
2022-07-30T07:12:32.511Z,652.30
2022-07-30T07:17:31.877Z,609.20
2022-07-30T07:22:32.033Z,630.40
2022-07-30T07:27:30.155Z,623.10
2022-07-30T07:32:29.473Z,629.20
2022-07-30T07:37:28.813Z,634.50
2022-07-30T07:42:28.136Z,639.00
2022-07-30T07:47:27.433Z,645.10
2022-07-30T07:52:27.754Z,648.70
2022-07-30T07:57:28.066Z,551.80
2022-07-30T08:02:26.447Z,554.70
2022-07-30T08:07:24.565Z,606.00
2022-07-30T08:12:23.891Z,552.80
2022-07-30T08:17:23.305Z,596.90
2022-07-30T08:22:22.516Z,583.20
2022-07-30T08:27:22.878Z,475.70
2022-07-30T08:32:21.977Z,594.60
2022-07-30T08:37:21.307Z,530.20
2022-07-30T08:42:19.629Z,516.70
2022-07-30T08:47:18.941Z,542.60
2022-07-30T08:52:18.251Z,497.80
2022-07-30T08:57:18.588Z,617.80
2022-07-30T09:02:16.783Z,550.30
2022-07-30T09:07:16.008Z,577.80
2022-07-30T09:12:15.138Z,551.00
2022-07-30T09:17:14.499Z,558.50
2022-07-30T09:22:14.652Z,527.60
2022-07-30T09:27:14.806Z,587.00
2022-07-30T09:32:12.935Z,581.40
2022-07-30T09:37:12.695Z,548.80
2022-07-30T09:42:12.544Z,589.50
2022-07-30T09:47:09.577Z,510.90
2022-07-30T09:52:10.119Z,578.10
2022-07-30T09:57:22.876Z,588.70
2022-07-30T10:02:10.129Z,629.50
2022-07-30T10:07:06.908Z,634.30
2022-07-30T10:12:10.735Z,594.50
2022-07-30T10:17:05.846Z,612.60
2022-07-30T10:22:04.262Z,626.70
2022-07-30T10:27:06.174Z,589.40
2022-07-30T10:32:03.548Z,589.10
2022-07-30T10:37:02.780Z,573.50
2022-07-30T10:42:00.970Z,552.00
2022-07-30T10:47:00.616Z,579.60
2022-07-30T10:51:59.474Z,595.00
2022-07-30T10:56:59.002Z,596.60
2022-07-30T11:01:58.999Z,516.90
2022-07-30T11:06:57.957Z,483.50
2022-07-30T11:12:01.978Z,532.10
2022-07-30T11:16:55.635Z,513.30
2022-07-30T11:21:55.867Z,554.60
2022-07-30T11:26:54.025Z,518.30
2022-07-30T11:31:56.390Z,559.80
2022-07-30T11:36:51.309Z,514.50
2022-07-30T11:41:52.641Z,503.50
2022-07-30T11:46:50.985Z,511.10
2022-07-30T11:51:51.175Z,515.10
2022-07-30T11:56:50.474Z,593.20
2022-07-30T12:01:48.783Z,565.40
2022-07-30T12:06:49.103Z,520.20
2022-07-30T12:11:47.431Z,482.70
2022-07-30T12:16:48.581Z,522.60
2022-07-30T12:21:49.546Z,511.30
2022-07-30T12:26:46.197Z,470.30
2022-07-30T12:31:44.531Z,481.60
2022-07-30T12:36:46.681Z,522.50
2022-07-30T12:41:42.966Z,530.80
2022-07-30T12:46:43.274Z,491.30
2022-07-30T12:51:42.580Z,544.70
2022-07-30T12:56:40.869Z,492.90
2022-07-30T13:01:40.214Z,490.70
2022-07-30T13:06:39.543Z,481.20
2022-07-30T13:11:38.696Z,523.00
2022-07-30T13:16:37.991Z,536.00
2022-07-30T13:21:38.317Z,460.90
2022-07-30T13:26:36.634Z,518.40
2022-07-30T13:31:42.609Z,476.40
2022-07-30T13:36:36.140Z,438.20
2022-07-30T13:41:34.473Z,502.90
2022-07-30T13:46:33.845Z,458.50
2022-07-30T13:51:32.975Z,394.00
2022-07-30T13:56:32.287Z,398.70
2022-07-30T14:01:36.746Z,495.60
2022-07-30T14:06:31.845Z,392.40
2022-07-30T14:11:29.163Z,440.70
2022-07-30T14:16:44.791Z,328.70
2022-07-30T14:21:28.477Z,468.40
2022-07-30T14:26:30.282Z,378.90
2022-07-30T14:31:26.980Z,355.70
2022-07-30T14:36:26.285Z,457.20
2022-07-30T14:41:25.584Z,372.00
2022-07-30T14:46:24.896Z,377.20
2022-07-30T14:51:26.794Z,336.20
2022-07-30T14:56:24.360Z,351.20
2022-07-30T15:01:24.797Z,285.90
2022-07-30T15:06:20.903Z,296.30
2022-07-30T15:11:22.329Z,366.70
2022-07-30T15:16:20.415Z,345.80
2022-07-30T15:21:19.734Z,351.10
2022-07-30T15:26:19.039Z,421.80
2022-07-30T15:31:18.362Z,321.20
2022-07-30T15:36:17.752Z,371.70
2022-07-30T15:41:18.875Z,338.10
2022-07-30T15:46:18.174Z,318.30
2022-07-30T15:51:17.478Z,253.00
2022-07-30T15:56:14.788Z,269.00
2022-07-30T16:01:16.172Z,302.50
2022-07-30T16:06:13.294Z,387.60
2022-07-30T16:11:12.622Z,378.60
2022-07-30T16:16:12.935Z,347.90
2022-07-30T16:21:12.249Z,288.10
2022-07-30T16:26:10.552Z,165.70
2022-07-30T16:31:09.884Z,161.10
2022-07-30T16:36:11.272Z,237.50
2022-07-30T16:41:12.935Z,319.80
2022-07-30T16:46:07.557Z,350.10
2022-07-30T16:51:06.765Z,313.50
2022-07-30T16:56:06.999Z,315.90
2022-07-30T17:01:07.348Z,359.10
2022-07-30T17:06:05.480Z,367.10
2022-07-30T17:11:03.620Z,435.10
2022-07-30T17:16:02.814Z,408.00
2022-07-30T17:21:01.971Z,417.50
2022-07-30T17:26:01.162Z,415.20
2022-07-30T17:31:00.342Z,332.00
2022-07-30T17:35:59.490Z,333.60
2022-07-30T17:40:58.801Z,358.60
2022-07-30T17:45:58.117Z,375.80
2022-07-30T17:50:58.275Z,453.50
2022-07-30T17:55:57.259Z,364.10
2022-07-30T18:00:55.757Z,414.20
2022-07-30T18:05:55.950Z,427.90
2022-07-30T18:10:55.117Z,464.20
2022-07-30T18:15:54.259Z,433.90
2022-07-30T18:20:52.604Z,385.40
2022-07-30T18:25:55.877Z,428.10
2022-07-30T18:30:50.934Z,490.30
2022-07-30T18:35:50.274Z,511.10
2022-07-30T18:40:49.381Z,465.70
2022-07-30T18:45:48.706Z,491.10
2022-07-30T18:50:48.050Z,521.20
2022-07-30T18:55:47.163Z,460.20
2022-07-30T19:00:47.565Z,495.80
2022-07-30T19:05:46.712Z,461.70
2022-07-30T19:10:48.065Z,448.80
2022-07-30T19:15:44.151Z,427.30
2022-07-30T19:20:44.313Z,521.40
2022-07-30T19:25:43.658Z,546.40
2022-07-30T19:30:42.804Z,463.40
2022-07-30T19:35:41.961Z,455.80
2022-07-30T19:40:40.090Z,484.40
2022-07-30T19:45:47.684Z,418.60
2022-07-30T19:50:40.643Z,453.60
2022-07-30T19:55:39.044Z,468.60
2022-07-30T20:00:37.168Z,505.40
2022-07-30T20:05:54.831Z,563.00
2022-07-30T20:10:34.526Z,440.50
2022-07-30T20:15:35.643Z,428.10
2022-07-30T20:20:33.936Z,453.10
2022-07-30T20:25:37.032Z,518.20
2022-07-30T20:30:33.379Z,494.30
2022-07-30T20:35:33.670Z,420.20
2022-07-30T20:40:31.951Z,490.20
2022-07-30T20:45:40.257Z,508.60
2022-07-30T20:55:29.516Z,533.10
2022-07-30T21:00:27.635Z,518.90
2022-07-30T21:05:27.204Z,511.80
2022-07-30T21:10:26.116Z,508.10
2022-07-30T21:15:26.452Z,490.50
2022-07-30T21:20:27.892Z,566.40
2022-07-30T21:25:33.019Z,523.60
2022-07-30T21:30:24.275Z,479.30
2022-07-30T21:35:22.171Z,522.30
2022-07-30T21:40:24.842Z,516.70
2022-07-30T21:45:21.787Z,543.40
2022-07-30T21:50:20.948Z,495.80
2022-07-30T21:55:19.249Z,516.90
2022-07-30T22:00:20.385Z,548.50
2022-07-30T22:05:19.529Z,536.80
2022-07-30T22:10:21.591Z,554.50
2022-07-30T22:15:15.895Z,532.60
2022-07-30T22:20:16.184Z,556.50
2022-07-30T22:25:14.375Z,590.90
2022-07-30T22:30:13.863Z,599.20
2022-07-30T22:35:12.941Z,574.60
2022-07-30T22:40:12.102Z,576.90
2022-07-30T22:45:12.231Z,548.80
2022-07-30T22:50:11.774Z,619.40
2022-07-30T22:55:11.809Z,602.10
2022-07-30T23:00:11.083Z,596.50
2022-07-30T23:05:09.064Z,620.40
2022-07-30T23:10:17.433Z,506.20
2022-07-30T23:12:19.363Z,499.00
2022-07-30T23:15:06.570Z,522.10
2022-07-30T23:20:05.670Z,441.70
2022-07-30T23:25:04.988Z,495.90
2022-07-30T23:30:05.305Z,505.70
2022-07-30T23:35:03.610Z,512.70
2022-07-30T23:40:02.800Z,488.90
2022-07-30T23:45:02.887Z,431.80
2022-07-30T23:50:01.249Z,514.90
2022-07-30T23:55:00.565Z,519.20
2022-07-30T23:59:59.870Z,485.30
